createdAt,value
2018-12-23T00:01:54.706Z,8.00
2018-12-23T00:04:22.491Z,8.00
2018-12-23T00:06:50.259Z,8.00
2018-12-23T00:09:17.893Z,7.90
2018-12-23T00:11:45.682Z,7.90
2018-12-23T00:14:13.312Z,7.90
2018-12-23T00:16:41.120Z,7.90
2018-12-23T00:19:08.811Z,7.80
2018-12-23T00:21:36.427Z,7.80
2018-12-23T00:24:04.035Z,7.80
2018-12-23T00:26:31.656Z,7.80
2018-12-23T00:28:59.266Z,7.80
2018-12-23T00:31:26.906Z,7.80
2018-12-23T00:33:54.774Z,7.80
2018-12-23T00:36:22.421Z,7.90
2018-12-23T00:38:50.242Z,7.90
2018-12-23T00:41:18.034Z,7.90
2018-12-23T00:43:45.659Z,7.90
2018-12-23T00:46:13.535Z,7.90
2018-12-23T00:48:41.316Z,7.90
2018-12-23T00:51:08.968Z,8.00
2018-12-23T00:53:36.627Z,7.90
2018-12-23T00:56:04.524Z,8.00
2018-12-23T00:58:32.140Z,8.00
2018-12-23T01:01:00.024Z,8.00
2018-12-23T01:03:27.566Z,8.00
2018-12-23T01:05:55.346Z,8.00
2018-12-23T01:08:23.200Z,8.00
2018-12-23T01:10:50.892Z,8.00
2018-12-23T01:13:18.618Z,8.00
2018-12-23T01:15:46.257Z,8.10
2018-12-23T01:18:13.860Z,8.10
2018-12-23T01:20:41.511Z,8.10
2018-12-23T01:23:09.238Z,8.10
2018-12-23T01:25:36.959Z,8.10
2018-12-23T01:28:04.734Z,8.10
2018-12-23T01:30:32.464Z,8.10
2018-12-23T01:33:00.111Z,8.10
2018-12-23T01:35:27.946Z,8.10
2018-12-23T01:37:55.582Z,8.10
2018-12-23T01:40:23.361Z,8.10
2018-12-23T01:42:50.981Z,8.10
2018-12-23T01:45:18.686Z,8.10
2018-12-23T01:47:46.396Z,8.10
2018-12-23T01:50:14.099Z,8.10
2018-12-23T01:52:41.762Z,8.10
2018-12-23T01:55:09.384Z,8.00
2018-12-23T01:57:37.138Z,8.00
2018-12-23T02:00:06.964Z,8.00
2018-12-23T02:02:34.866Z,8.00
2018-12-23T02:05:02.873Z,8.00
2018-12-23T02:07:30.511Z,8.00
2018-12-23T02:09:58.028Z,8.00
2018-12-23T02:12:25.686Z,8.00
2018-12-23T02:14:53.667Z,8.00
2018-12-23T02:17:21.278Z,8.00
2018-12-23T02:19:49.021Z,8.00
2018-12-23T02:22:16.657Z,8.00
2018-12-23T02:24:44.535Z,8.00
2018-12-23T02:27:12.246Z,8.00
2018-12-23T02:29:40.923Z,8.00
2018-12-23T02:32:08.641Z,8.00
2018-12-23T02:34:36.323Z,8.00
2018-12-23T02:37:03.930Z,8.00
2018-12-23T02:39:31.623Z,8.00
2018-12-23T02:41:59.251Z,8.00
2018-12-23T02:44:28.122Z,7.90
2018-12-23T02:46:58.746Z,8.00
2018-12-23T02:49:26.506Z,7.90
2018-12-23T02:51:54.153Z,8.00
2018-12-23T02:54:21.812Z,7.90
2018-12-23T02:56:49.423Z,7.90
2018-12-23T02:59:17.356Z,7.90
2018-12-23T03:01:45.025Z,7.90
2018-12-23T03:04:12.857Z,7.90
2018-12-23T03:06:40.572Z,7.90
2018-12-23T03:09:08.325Z,7.90
2018-12-23T03:11:35.962Z,7.90
2018-12-23T03:14:03.579Z,7.90
2018-12-23T03:16:31.313Z,7.90
2018-12-23T03:18:58.952Z,7.90
2018-12-23T03:21:26.604Z,7.90
2018-12-23T03:23:54.266Z,7.90
2018-12-23T03:26:21.895Z,7.90
2018-12-23T03:28:49.508Z,7.80
2018-12-23T03:31:17.435Z,7.90
2018-12-23T03:33:45.098Z,7.80
2018-12-23T03:36:15.322Z,7.80
2018-12-23T03:38:42.300Z,7.80
2018-12-23T03:41:09.941Z,7.80
2018-12-23T03:43:37.652Z,7.80
2018-12-23T03:46:05.219Z,7.80
2018-12-23T03:48:33.032Z,7.80
2018-12-23T03:51:00.670Z,7.80
2018-12-23T03:53:28.507Z,7.80
2018-12-23T03:55:56.383Z,7.80
2018-12-23T03:58:24.113Z,7.80
2018-12-23T04:00:51.772Z,7.80
2018-12-23T04:03:19.460Z,7.80
2018-12-23T04:05:47.091Z,7.80
2018-12-23T04:08:15.357Z,7.80
2018-12-23T04:10:43.171Z,7.80
2018-12-23T04:13:10.966Z,7.80
2018-12-23T04:15:38.754Z,7.80
2018-12-23T04:18:06.546Z,7.80
2018-12-23T04:20:34.098Z,7.80
2018-12-23T04:23:01.869Z,7.80
2018-12-23T04:25:29.644Z,7.80
2018-12-23T04:27:57.439Z,7.80
2018-12-23T04:30:25.056Z,7.80
2018-12-23T04:32:52.714Z,7.80
2018-12-23T04:35:20.351Z,7.80
2018-12-23T04:37:48.173Z,7.80
2018-12-23T04:40:15.758Z,7.80
2018-12-23T04:42:43.355Z,7.80
2018-12-23T04:45:10.992Z,7.80
2018-12-23T04:47:38.678Z,7.80
2018-12-23T04:50:07.646Z,7.80
2018-12-23T04:52:35.196Z,7.80
2018-12-23T04:55:03.057Z,7.80
2018-12-23T04:57:30.816Z,7.80
2018-12-23T04:59:58.466Z,7.80
2018-12-23T05:02:26.042Z,7.80
2018-12-23T05:04:53.814Z,7.80
2018-12-23T05:07:21.783Z,7.70
2018-12-23T05:09:49.490Z,7.70
2018-12-23T05:12:17.159Z,7.70
2018-12-23T05:14:45.980Z,7.70
2018-12-23T05:17:13.680Z,7.70
2018-12-23T05:19:41.580Z,7.70
2018-12-23T05:22:09.317Z,7.60
2018-12-23T05:24:37.132Z,7.60
2018-12-23T05:27:04.884Z,7.60
2018-12-23T05:29:32.546Z,7.60
2018-12-23T05:32:00.232Z,7.60
2018-12-23T05:34:27.912Z,7.60
2018-12-23T05:36:55.554Z,7.50
2018-12-23T05:39:23.285Z,7.50
2018-12-23T05:41:50.931Z,7.50
2018-12-23T05:44:18.596Z,7.50
2018-12-23T05:46:46.500Z,7.50
2018-12-23T05:49:14.065Z,7.50
2018-12-23T05:51:41.796Z,7.50
2018-12-23T05:54:09.733Z,7.50
2018-12-23T05:56:37.386Z,7.50
2018-12-23T05:59:05.844Z,7.50
2018-12-23T06:01:33.435Z,7.50
2018-12-23T06:04:01.476Z,7.50
2018-12-23T06:06:29.103Z,7.50
2018-12-23T06:08:56.712Z,7.50
2018-12-23T06:11:27.282Z,7.50
2018-12-23T06:13:55.073Z,7.50
2018-12-23T06:16:22.718Z,7.50
2018-12-23T06:18:50.374Z,7.50
2018-12-23T06:21:18.381Z,7.50
2018-12-23T06:23:46.047Z,7.50
2018-12-23T06:26:13.849Z,7.50
2018-12-23T06:28:41.493Z,7.50
2018-12-23T06:31:09.254Z,7.50
2018-12-23T06:33:36.864Z,7.40
2018-12-23T06:36:04.841Z,7.40
2018-12-23T06:38:34.519Z,7.40
2018-12-23T06:41:02.078Z,7.40
2018-12-23T06:43:30.685Z,7.40
2018-12-23T06:45:58.291Z,7.40
2018-12-23T06:48:25.954Z,7.40
2018-12-23T06:50:53.602Z,7.40
2018-12-23T06:53:21.290Z,7.40
2018-12-23T06:55:48.902Z,7.40
2018-12-23T06:58:16.559Z,7.40
2018-12-23T07:00:44.270Z,7.40
2018-12-23T07:03:12.010Z,7.50
2018-12-23T07:05:39.587Z,7.40
2018-12-23T07:08:07.359Z,7.40
2018-12-23T07:10:34.954Z,7.40
2018-12-23T07:13:02.587Z,7.40
2018-12-23T07:15:30.503Z,7.40
2018-12-23T07:17:58.070Z,7.40
2018-12-23T07:20:25.825Z,7.40
2018-12-23T07:22:53.401Z,7.40
2018-12-23T07:25:21.103Z,7.40
2018-12-23T07:27:48.965Z,7.40
2018-12-23T07:30:16.583Z,7.40
2018-12-23T07:32:44.176Z,7.40
2018-12-23T07:35:11.936Z,7.40
2018-12-23T07:37:39.596Z,7.40
2018-12-23T07:40:07.326Z,7.40
2018-12-23T07:42:35.166Z,7.40
2018-12-23T07:45:02.790Z,7.40
2018-12-23T07:47:30.368Z,7.40
2018-12-23T07:49:58.222Z,7.40
2018-12-23T07:52:25.890Z,7.40
2018-12-23T07:54:53.782Z,7.40
2018-12-23T07:57:21.326Z,7.40
2018-12-23T07:59:48.856Z,7.40
2018-12-23T08:02:16.472Z,7.40
2018-12-23T08:04:44.042Z,7.40
2018-12-23T08:07:11.662Z,7.40
2018-12-23T08:09:39.412Z,7.40
2018-12-23T08:12:06.955Z,7.40
2018-12-23T08:14:34.661Z,7.40
2018-12-23T08:17:02.217Z,7.40
2018-12-23T08:19:29.829Z,7.40
2018-12-23T08:21:57.583Z,7.50
2018-12-23T08:24:25.210Z,7.50
2018-12-23T08:26:53.102Z,7.50
2018-12-23T08:29:20.844Z,7.50
2018-12-23T08:31:48.759Z,7.50
2018-12-23T08:34:16.698Z,7.60
2018-12-23T08:36:44.786Z,7.60
2018-12-23T08:39:12.504Z,7.60
2018-12-23T08:41:40.215Z,7.70
2018-12-23T08:44:07.965Z,7.70
2018-12-23T08:46:39.218Z,7.70
2018-12-23T08:49:05.570Z,7.70
2018-12-23T08:51:33.382Z,7.70
2018-12-23T08:54:00.958Z,7.80
2018-12-23T08:56:28.753Z,7.80
2018-12-23T08:58:56.433Z,7.80
2018-12-23T09:01:24.146Z,7.80
2018-12-23T09:03:52.155Z,7.80
2018-12-23T09:06:19.981Z,7.80
2018-12-23T09:08:47.674Z,7.90
2018-12-23T09:11:15.300Z,7.90
2018-12-23T09:13:42.966Z,7.90
2018-12-23T09:16:10.640Z,7.90
2018-12-23T09:18:38.213Z,7.90
2018-12-23T09:21:05.993Z,8.00
2018-12-23T09:23:33.690Z,8.00
2018-12-23T09:26:01.285Z,8.00
2018-12-23T09:28:29.138Z,8.00
2018-12-23T09:30:56.703Z,8.00
2018-12-23T09:33:24.524Z,8.10
2018-12-23T09:35:52.328Z,8.10
2018-12-23T09:38:19.980Z,8.10
2018-12-23T09:40:47.739Z,8.20
2018-12-23T09:43:15.404Z,8.20
2018-12-23T09:45:43.302Z,8.20
2018-12-23T09:48:11.297Z,8.20
2018-12-23T09:50:38.981Z,8.20
2018-12-23T09:53:06.554Z,8.30
2018-12-23T09:55:34.145Z,8.30
2018-12-23T09:58:01.864Z,8.30
2018-12-23T10:00:29.504Z,8.30
2018-12-23T10:02:57.216Z,8.30
2018-12-23T10:05:25.062Z,8.40
2018-12-23T10:07:52.739Z,8.40
2018-12-23T10:10:28.179Z,8.40
2018-12-23T10:12:50.109Z,8.50
2018-12-23T10:15:18.110Z,8.50
2018-12-23T10:17:45.699Z,8.60
2018-12-23T10:20:13.247Z,8.60
2018-12-23T10:22:40.790Z,8.60
2018-12-23T10:25:08.392Z,8.70
2018-12-23T10:27:35.993Z,8.70
2018-12-23T10:30:04.230Z,8.70
2018-12-23T10:32:32.292Z,8.70
2018-12-23T10:34:59.831Z,8.80
2018-12-23T10:37:27.445Z,8.80
2018-12-23T10:39:54.996Z,8.80
2018-12-23T10:42:22.724Z,8.80
2018-12-23T10:44:50.671Z,8.80
2018-12-23T10:47:18.316Z,8.90
2018-12-23T10:49:46.111Z,8.90
2018-12-23T10:52:13.749Z,8.90
2018-12-23T10:54:41.619Z,8.90
2018-12-23T10:57:09.470Z,8.90
2018-12-23T10:59:37.224Z,9.00
2018-12-23T11:02:13.451Z,9.00
2018-12-23T11:04:34.594Z,9.00
2018-12-23T11:07:02.154Z,9.00
2018-12-23T11:09:30.293Z,9.00
2018-12-23T11:11:57.997Z,9.00
2018-12-23T11:14:25.535Z,9.00
2018-12-23T11:16:53.174Z,9.00
2018-12-23T11:19:20.872Z,9.10
2018-12-23T11:21:48.509Z,9.10
2018-12-23T11:24:17.251Z,9.00
2018-12-23T11:26:44.845Z,9.00
2018-12-23T11:29:12.392Z,9.00
2018-12-23T11:31:40.044Z,9.00
2018-12-23T11:34:07.599Z,9.00
2018-12-23T11:36:35.174Z,9.00
2018-12-23T11:39:04.314Z,9.00
2018-12-23T11:41:31.876Z,9.00
2018-12-23T11:43:59.512Z,9.00
2018-12-23T11:46:27.310Z,9.00
2018-12-23T11:48:54.838Z,9.00
2018-12-23T11:51:22.689Z,9.00
2018-12-23T11:53:52.024Z,9.00
2018-12-23T11:56:20.242Z,9.00
2018-12-23T11:58:47.899Z,9.00
2018-12-23T12:01:15.422Z,9.00
2018-12-23T12:03:43.095Z,9.00
2018-12-23T12:06:10.839Z,9.00
2018-12-23T12:08:43.709Z,9.00
2018-12-23T12:11:08.089Z,9.00
2018-12-23T12:13:35.762Z,9.00
2018-12-23T12:16:03.654Z,9.00
2018-12-23T12:18:31.218Z,8.90
2018-12-23T12:20:58.781Z,9.00
2018-12-23T12:23:26.414Z,9.00
2018-12-23T12:25:54.091Z,8.90
2018-12-23T12:28:21.749Z,9.00
2018-12-23T12:30:50.759Z,8.90
2018-12-23T12:33:18.296Z,8.90
2018-12-23T12:35:45.794Z,8.90
2018-12-23T12:38:13.660Z,8.90
2018-12-23T12:40:41.222Z,8.90
2018-12-23T12:43:08.772Z,8.90
2018-12-23T12:45:36.362Z,8.90
2018-12-23T12:48:04.007Z,8.90
2018-12-23T12:50:32.878Z,8.90
2018-12-23T12:53:00.572Z,8.90
2018-12-23T12:55:28.226Z,8.90
2018-12-23T12:57:55.973Z,8.80
2018-12-23T13:00:23.578Z,8.80
2018-12-23T13:02:51.086Z,8.80
2018-12-23T13:05:18.796Z,8.80
2018-12-23T13:07:46.539Z,8.80
2018-12-23T13:10:14.157Z,8.80
2018-12-23T13:12:41.728Z,8.70
2018-12-23T13:15:09.323Z,8.70
2018-12-23T13:17:38.109Z,8.70
2018-12-23T13:20:06.723Z,8.70
2018-12-23T13:22:34.474Z,8.70
2018-12-23T13:25:02.137Z,8.70
2018-12-23T13:27:29.889Z,8.60
2018-12-23T13:29:57.434Z,8.60
2018-12-23T13:32:24.957Z,8.60
2018-12-23T13:34:52.556Z,8.60
2018-12-23T13:37:20.210Z,8.60
2018-12-23T13:39:49.056Z,8.50
2018-12-23T13:42:43.685Z,8.50
2018-12-23T13:45:25.210Z,8.50
2018-12-23T13:48:16.428Z,8.50
2018-12-23T13:51:01.168Z,8.50
2018-12-23T13:55:48.168Z,8.40
2018-12-23T13:59:25.592Z,8.40
2018-12-23T14:02:06.722Z,8.40
2018-12-23T14:04:58.065Z,8.40
2018-12-23T14:07:34.092Z,8.40
2018-12-23T14:10:27.632Z,8.40
2018-12-23T14:12:55.160Z,8.30
2018-12-23T14:15:22.801Z,8.30
2018-12-23T14:17:50.515Z,8.30
2018-12-23T14:20:18.324Z,8.30
2018-12-23T14:22:45.886Z,8.20
2018-12-23T14:25:13.444Z,8.20
2018-12-23T14:27:42.135Z,8.20
2018-12-23T14:30:09.726Z,8.20
2018-12-23T14:32:37.299Z,8.20
2018-12-23T14:35:04.971Z,8.20
2018-12-23T14:37:32.592Z,8.20
2018-12-23T14:40:06.747Z,8.20
2018-12-23T14:42:34.373Z,8.10
2018-12-23T14:45:02.026Z,8.10
2018-12-23T14:47:29.668Z,8.10
2018-12-23T14:49:57.496Z,8.10
2018-12-23T14:52:25.379Z,8.10
2018-12-23T14:54:53.608Z,8.10
2018-12-23T14:57:21.295Z,8.10
2018-12-23T14:59:48.929Z,8.10
2018-12-23T15:02:16.479Z,8.10
2018-12-23T15:04:44.165Z,8.10
2018-12-23T15:07:18.499Z,8.10
2018-12-23T15:09:46.132Z,8.10
2018-12-23T15:12:13.953Z,8.10
2018-12-23T15:14:41.570Z,8.10
2018-12-23T15:17:09.163Z,8.10
2018-12-23T15:19:36.839Z,8.10
2018-12-23T15:22:04.399Z,8.10
2018-12-23T15:24:32.028Z,8.10
2018-12-23T15:26:59.600Z,8.10
2018-12-23T15:29:27.232Z,8.10
2018-12-23T15:31:54.803Z,8.10
2018-12-23T15:34:22.472Z,8.10
2018-12-23T15:36:50.017Z,8.10
2018-12-23T15:39:17.576Z,8.00
2018-12-23T15:41:45.187Z,8.10
2018-12-23T15:44:12.741Z,8.10
2018-12-23T15:46:41.633Z,8.10
2018-12-23T15:49:09.218Z,8.10
2018-12-23T15:51:36.781Z,8.10
2018-12-23T15:54:04.370Z,8.10
2018-12-23T15:56:32.205Z,8.10
2018-12-23T15:58:59.752Z,8.10
2018-12-23T16:01:27.352Z,8.10
2018-12-23T16:03:54.933Z,8.10
2018-12-23T16:06:22.601Z,8.10
2018-12-23T16:08:50.171Z,8.10
2018-12-23T16:11:17.761Z,8.10
2018-12-23T16:13:45.637Z,8.10
2018-12-23T16:16:13.237Z,8.10
2018-12-23T16:18:40.796Z,8.10
2018-12-23T16:21:09.353Z,8.10
2018-12-23T16:23:37.011Z,8.10
2018-12-23T16:26:04.694Z,8.20
2018-12-23T16:29:03.510Z,8.20
2018-12-23T16:31:30.910Z,8.20
2018-12-23T16:33:58.238Z,8.20
2018-12-23T16:36:25.531Z,8.20
2018-12-23T16:38:52.971Z,8.20
2018-12-23T16:41:20.357Z,8.30
2018-12-23T16:43:47.751Z,8.20
2018-12-23T16:46:15.404Z,8.30
2018-12-23T16:48:42.803Z,8.30
2018-12-23T16:51:10.098Z,8.30
2018-12-23T16:53:37.515Z,8.40
2018-12-23T16:56:04.809Z,8.40
2018-12-23T16:58:32.251Z,8.40
2018-12-23T17:01:00.768Z,8.50
2018-12-23T17:03:28.207Z,8.50
2018-12-23T17:05:55.513Z,8.50
2018-12-23T17:08:22.934Z,8.50
2018-12-23T17:10:50.315Z,8.60
2018-12-23T17:13:18.083Z,8.60
2018-12-23T17:15:45.593Z,8.60
2018-12-23T17:18:12.890Z,8.60
2018-12-23T17:20:40.761Z,8.70
2018-12-23T17:23:08.636Z,8.80
2018-12-23T17:25:36.786Z,8.80
2018-12-23T17:28:04.687Z,8.90
2018-12-23T17:30:32.417Z,8.90
2018-12-23T17:32:59.985Z,8.90
2018-12-23T17:35:27.688Z,9.00
2018-12-23T17:37:55.284Z,9.00
2018-12-23T17:40:22.974Z,9.00
2018-12-23T17:42:50.413Z,9.00
2018-12-23T17:45:18.392Z,9.10
2018-12-23T17:47:45.843Z,9.10
2018-12-23T17:50:13.292Z,9.10
2018-12-23T17:52:40.718Z,9.20
2018-12-23T17:55:08.491Z,9.20
2018-12-23T17:57:35.831Z,9.20
2018-12-23T18:00:04.033Z,9.20
2018-12-23T18:02:31.671Z,9.30
2018-12-23T18:04:59.096Z,9.30
2018-12-23T18:07:26.559Z,9.30
2018-12-23T18:09:53.949Z,9.40
2018-12-23T18:12:21.371Z,9.40
2018-12-23T18:14:49.315Z,9.40
2018-12-23T18:17:16.781Z,9.40
2018-12-23T18:19:44.440Z,9.40
2018-12-23T18:22:11.820Z,9.40
2018-12-23T18:24:39.489Z,9.50
2018-12-23T18:27:07.144Z,9.50
2018-12-23T18:29:34.559Z,9.50
2018-12-23T18:32:02.053Z,9.50
2018-12-23T18:34:29.503Z,9.50
2018-12-23T18:36:56.831Z,9.50
2018-12-23T18:39:24.208Z,9.60
2018-12-23T18:41:51.559Z,9.60
2018-12-23T18:44:19.227Z,9.60
2018-12-23T18:46:46.625Z,9.60
2018-12-23T18:49:14.016Z,9.60
2018-12-23T18:51:41.412Z,9.60
2018-12-23T18:54:08.795Z,9.70
2018-12-23T18:56:39.570Z,9.70
2018-12-23T18:59:06.996Z,9.70
2018-12-23T19:01:36.229Z,9.70
2018-12-23T19:04:03.710Z,9.70
2018-12-23T19:06:31.066Z,9.70
2018-12-23T19:09:10.394Z,9.70
2018-12-23T19:11:59.912Z,9.70
2018-12-23T19:15:33.707Z,9.70
2018-12-23T19:18:35.101Z,9.80
2018-12-23T19:21:41.748Z,9.80
2018-12-23T19:24:45.427Z,9.80
2018-12-23T19:27:34.659Z,9.80
2018-12-23T19:30:48.793Z,9.80
2018-12-23T19:33:52.828Z,9.80
2018-12-23T19:37:08.765Z,9.90
2018-12-23T19:40:14.066Z,9.90
2018-12-23T19:43:20.661Z,9.90
2018-12-23T19:46:22.849Z,9.90
2018-12-23T19:49:33.306Z,9.90
2018-12-23T19:52:57.086Z,9.90
2018-12-23T19:55:57.691Z,9.90
2018-12-23T19:58:52.918Z,9.90
2018-12-23T20:02:11.517Z,10.00
2018-12-23T20:05:15.480Z,10.00
2018-12-23T20:08:32.055Z,10.00
2018-12-23T20:11:55.878Z,10.00
2018-12-23T20:14:50.416Z,10.00
2018-12-23T20:17:40.748Z,10.00
2018-12-23T20:20:52.273Z,10.00
2018-12-23T20:24:07.423Z,10.00
2018-12-23T20:27:08.995Z,10.10
2018-12-23T20:30:09.859Z,10.10
2018-12-23T20:33:21.272Z,10.10
2018-12-23T20:36:26.236Z,10.10
2018-12-23T20:39:40.443Z,10.10
2018-12-23T20:42:57.683Z,10.10
2018-12-23T20:46:18.453Z,10.10
2018-12-23T20:49:28.049Z,10.10
2018-12-23T20:52:22.590Z,10.10
2018-12-23T20:55:43.996Z,10.10
2018-12-23T20:58:28.035Z,10.20
2018-12-23T21:01:35.546Z,10.20
2018-12-23T21:04:43.987Z,10.20
2018-12-23T21:07:41.491Z,10.20
2018-12-23T21:10:49.729Z,10.20
2018-12-23T21:14:03.985Z,10.20
2018-12-23T21:17:09.154Z,10.20
2018-12-23T21:20:40.979Z,10.20
2018-12-23T21:24:01.148Z,10.20
2018-12-23T21:26:56.402Z,10.30
2018-12-23T21:30:26.904Z,10.30
2018-12-23T21:33:33.639Z,10.30
2018-12-23T21:36:31.711Z,10.30
2018-12-23T21:39:44.250Z,10.30
2018-12-23T21:42:53.501Z,10.30
2018-12-23T21:45:48.003Z,10.30
2018-12-23T21:48:28.097Z,10.30
2018-12-23T21:51:43.632Z,10.30
2018-12-23T21:54:42.266Z,10.30
2018-12-23T21:57:48.010Z,10.30
2018-12-23T22:01:06.554Z,10.30
2018-12-23T22:04:10.606Z,10.30
2018-12-23T22:07:16.092Z,10.30
2018-12-23T22:10:24.122Z,10.30
2018-12-23T22:13:25.948Z,10.30
2018-12-23T22:15:53.583Z,10.30
2018-12-23T22:18:21.059Z,10.30
2018-12-23T22:20:48.328Z,10.30
2018-12-23T22:23:15.985Z,10.40
2018-12-23T22:25:43.743Z,10.30
2018-12-23T22:28:11.208Z,10.40
2018-12-23T22:30:38.723Z,10.30
2018-12-23T22:33:06.203Z,10.30
2018-12-23T22:35:33.607Z,10.30
2018-12-23T22:38:01.020Z,10.30
2018-12-23T22:40:28.382Z,10.40
2018-12-23T22:42:55.688Z,10.30
2018-12-23T22:45:23.077Z,10.40
2018-12-23T22:47:50.465Z,10.40
2018-12-23T22:50:17.877Z,10.40
2018-12-23T22:52:45.157Z,10.40
2018-12-23T22:55:12.566Z,10.40
2018-12-23T22:57:39.955Z,10.40
2018-12-23T23:00:07.530Z,10.40
2018-12-23T23:02:36.772Z,10.40
2018-12-23T23:05:04.281Z,10.40
2018-12-23T23:07:31.675Z,10.40
2018-12-23T23:09:59.088Z,10.40
2018-12-23T23:12:26.353Z,10.40
2018-12-23T23:14:53.620Z,10.40
2018-12-23T23:17:21.007Z,10.40
2018-12-23T23:19:48.403Z,10.40
2018-12-23T23:22:16.244Z,10.40
2018-12-23T23:24:43.494Z,10.50
2018-12-23T23:27:11.286Z,10.50
2018-12-23T23:29:38.527Z,10.50
2018-12-23T23:32:05.945Z,10.50
2018-12-23T23:34:33.339Z,10.40
2018-12-23T23:37:00.591Z,10.50
2018-12-23T23:39:27.960Z,10.50
2018-12-23T23:41:58.496Z,10.50
2018-12-23T23:44:24.430Z,10.50
2018-12-23T23:46:52.071Z,10.50
2018-12-23T23:49:19.354Z,10.50
2018-12-23T23:51:47.066Z,10.50
2018-12-23T23:54:14.731Z,10.50
2018-12-23T23:56:42.125Z,10.50
2018-12-23T23:59:09.363Z,10.50
